Nur fliegen ist schöner ....

Willkommen beim Flugservice Bautzen GmbH

Wir sind eine nach europäischen Richtlinien zugelassene Flugschule und lizenziertes Luftfahrtunternehmen. Bei uns können sie nicht nur Rundflüge über die Oberlausitz oder Sachsen buchen, sondern in unserer Flugschule selber das Fliegen erlernen. Erfahrene Fluglehrer stehen Ihnen dabei zur Seite.

Wir bieten Ihnen außerdem spezielle Flüge zur Vermessung oder Fotoflüge für Luftbildaufnahmen an. In Zusammenarbeit mit dem Fallschirmsportclub Dresden und dem Cottbuser Fallschirmsportclub setzen wir am Flugplatz Bautzen und Neuhausen Fallschirmspringer ab.
Schauen Sie sich in Ruhe bei uns um und wenn Sie Fragen haben oder weitere Informationen benötigen, scheuen Sie sich nicht Kontakt mit uns aufzunehmen.

Gutscheine für Rundflüge und Tandemsprünge können Sie ganz leicht auch online in unserem Shop erwerben.

Terminkalender

Letzter Monat März 2020 Nächster Monat
Mo Di Mi Do Fr Sa So
week 9 1
week 10 2 3 4 5 6 7 8
week 11 9 10 11 12 13 14 15
week 12 16 17 18 19 20 21 22
week 13 23 24 25 26 27 28 29
week 14 30 31

Flugwetterinfo

[Quelle: ADDS]
METAR
EDDC 282020Z 31007KT CAVOK 07/M02 Q1017 NOSIG =
EDDC 281700Z 2818/2918 32007KT CAVOK TEMPO 2911/2918 4000 -RADZ BKN008 BECMG 2911/2914 03015G25KT 2000 -RASN BKN004
TAF
EDDC 281700Z 2818/2918 32007KT CAVOK TEMPO 2911/2918 4000 -RADZ BKN008 BECMG 2911/2914 03015G25KT 2000 -RASN BKN004 =
SR / SS: 04:45 / 17:28 UTC (EDAB Flugplatz Bautzen 2020-03-28)

Öffnungszeiten

des Flugplatzes Bautzen erfahren Sie hier:

flugplatz bautzen logo
Flugservice Bautzen GmbH, Kornmarkt 34, 02625 Bautzen  Telefon: +49 (3591) 211105, Telefax: +49 (3591) 274512, E-Mail:  flugservice(at)fsbautzen.de